Normetal, Canada
Current Conditions -  °F | °C
As of 10:00 PM on Wednesday 26 Nov 2014 (Local Time) from CYUY Reporting Station
Clear Clear  
Wind Chill:   Ceiling: Unl
Heat Index:   Visibility: 15mi
Dew Point:   Wind: 2mph
Humidity: 92%   Direction: 20°NNE
Pressure: 30.16"   Gusts: NA
Location:  49°N, 79.37°W
Report Text: CYUY 270300Z 02002KT 15SM M13/M14 A3016 RMK SLP237
Loading
Personal Weather Stations






























Interactive Weather Map New forecast layout! Learn more

10-Day Weather Forecast

Advertisements
Track Severe Weather on mobile